Terminal Aerodrome Forecast
Issued by NWS Twin Cities, MN

Home | Current Version | Previous Version | Text Only | Print | Product List | Glossary Off
Versions: 1 2 3 4 5 6 7 8 9 10 11 12 13 14 15 16 17 18 19 20 21 22 23

000
FTUS43 KMPX 221700
TAFMSP
TAF
KMSP 221737Z 2218/2324 13011KT 3SM -RA BR OVC008
     FM222200 11013KT 4SM -RA BR OVC007
     FM230500 07012KT 3SM -RASN BR OVC008
     FM230900 03015KT 1 1/2SM -SN BR OVC005
     FM231800 36012KT 3SM -SN OVC006=

USA.gov is the U.S. government's official web portal to all federal, state and local government web resources and services.